sensor_id;sensor_type;location;lat;lon;timestamp;P1;durP1;ratioP1;P2;durP2;ratioP2
56201;SDS011;42117;50.360;3.508;2023-03-14T00:01:22;8.65;;;2.70;;
56201;SDS011;42117;50.360;3.508;2023-03-14T00:03:48;7.10;;;2.72;;
56201;SDS011;42117;50.360;3.508;2023-03-14T00:06:15;6.90;;;2.67;;
56201;SDS011;42117;50.360;3.508;2023-03-14T00:08:42;8.23;;;3.35;;
56201;SDS011;42117;50.360;3.508;2023-03-14T00:11:09;3.95;;;2.80;;
56201;SDS011;42117;50.360;3.508;2023-03-14T00:13:35;11.15;;;3.53;;
56201;SDS011;42117;50.360;3.508;2023-03-14T00:16:09;6.35;;;3.35;;
56201;SDS011;42117;50.360;3.508;2023-03-14T00:18:35;6.88;;;3.40;;
56201;SDS011;42117;50.360;3.508;2023-03-14T00:21:02;6.15;;;1.52;;
56201;SDS011;42117;50.360;3.508;2023-03-14T00:23:29;11.70;;;0.80;;
56201;SDS011;42117;50.360;3.508;2023-03-14T00:28:50;0.73;;;0.73;;
56201;SDS011;42117;50.360;3.508;2023-03-14T00:31:16;0.35;;;0.28;;
56201;SDS011;42117;50.360;3.508;2023-03-14T00:33:42;0.80;;;0.75;;
56201;SDS011;42117;50.360;3.508;2023-03-14T00:36:09;0.60;;;0.60;;
56201;SDS011;42117;50.360;3.508;2023-03-14T00:38:36;4.90;;;1.70;;
56201;SDS011;42117;50.360;3.508;2023-03-14T00:41:03;0.50;;;0.50;;
56201;SDS011;42117;50.360;3.508;2023-03-14T00:43:29;2.00;;;1.30;;
56201;SDS011;42117;50.360;3.508;2023-03-14T00:45:55;0.28;;;0.28;;
56201;SDS011;42117;50.360;3.508;2023-03-14T00:48:22;0.40;;;0.40;;
56201;SDS011;42117;50.360;3.508;2023-03-14T00:50:48;0.40;;;0.40;;
56201;SDS011;42117;50.360;3.508;2023-03-14T00:53:14;0.30;;;0.30;;
56201;SDS011;42117;50.360;3.508;2023-03-14T00:55:41;0.60;;;0.60;;
56201;SDS011;42117;50.360;3.508;2023-03-14T00:58:07;3.80;;;0.90;;
56201;SDS011;42117;50.360;3.508;2023-03-14T01:00:34;0.73;;;0.73;;
56201;SDS011;42117;50.360;3.508;2023-03-14T01:03:00;1.30;;;1.20;;
56201;SDS011;42117;50.360;3.508;2023-03-14T01:05:26;0.70;;;0.40;;
56201;SDS011;42117;50.360;3.508;2023-03-14T01:07:52;2.25;;;0.38;;
56201;SDS011;42117;50.360;3.508;2023-03-14T01:10:18;0.45;;;0.45;;
56201;SDS011;42117;50.360;3.508;2023-03-14T01:12:44;0.20;;;0.20;;
56201;SDS011;42117;50.360;3.508;2023-03-14T01:15:11;1.60;;;0.80;;
56201;SDS011;42117;50.360;3.508;2023-03-14T01:17:37;0.40;;;0.40;;
56201;SDS011;42117;50.360;3.508;2023-03-14T01:20:04;1.00;;;0.98;;
56201;SDS011;42117;50.360;3.508;2023-03-14T01:22:31;0.90;;;0.50;;
56201;SDS011;42117;50.360;3.508;2023-03-14T01:24:57;0.70;;;0.70;;
56201;SDS011;42117;50.360;3.508;2023-03-14T01:27:23;0.20;;;0.20;;
56201;SDS011;42117;50.360;3.508;2023-03-14T01:29:49;0.88;;;0.88;;
56201;SDS011;42117;50.360;3.508;2023-03-14T01:32:15;0.90;;;0.80;;
56201;SDS011;42117;50.360;3.508;2023-03-14T01:34:41;1.30;;;1.20;;
56201;SDS011;42117;50.360;3.508;2023-03-14T01:37:07;0.60;;;0.50;;
56201;SDS011;42117;50.360;3.508;2023-03-14T01:39:33;1.15;;;1.05;;
56201;SDS011;42117;50.360;3.508;2023-03-14T01:42:02;0.50;;;0.50;;
56201;SDS011;42117;50.360;3.508;2023-03-14T01:44:28;1.10;;;0.60;;
56201;SDS011;42117;50.360;3.508;2023-03-14T01:46:54;0.22;;;0.22;;
56201;SDS011;42117;50.360;3.508;2023-03-14T01:49:22;12.13;;;1.60;;
56201;SDS011;42117;50.360;3.508;2023-03-14T01:51:51;5.60;;;1.00;;
56201;SDS011;42117;50.360;3.508;2023-03-14T01:54:22;6.75;;;1.30;;
56201;SDS011;42117;50.360;3.508;2023-03-14T01:57:03;8.60;;;1.20;;
56201;SDS011;42117;50.360;3.508;2023-03-14T01:59:30;8.30;;;1.15;;
56201;SDS011;42117;50.360;3.508;2023-03-14T02:01:57;5.78;;;1.55;;
56201;SDS011;42117;50.360;3.508;2023-03-14T02:04:23;11.07;;;2.13;;
56201;SDS011;42117;50.360;3.508;2023-03-14T02:06:51;7.20;;;1.30;;
56201;SDS011;42117;50.360;3.508;2023-03-14T02:09:18;14.57;;;2.30;;
56201;SDS011;42117;50.360;3.508;2023-03-14T02:11:45;3.40;;;1.40;;
56201;SDS011;42117;50.360;3.508;2023-03-14T02:14:14;1.20;;;1.15;;
56201;SDS011;42117;50.360;3.508;2023-03-14T02:16:41;3.30;;;1.17;;
56201;SDS011;42117;50.360;3.508;2023-03-14T02:19:07;14.32;;;2.53;;
56201;SDS011;42117;50.360;3.508;2023-03-14T02:21:38;12.20;;;1.90;;
56201;SDS011;42117;50.360;3.508;2023-03-14T02:26:38;3.85;;;1.80;;
56201;SDS011;42117;50.360;3.508;2023-03-14T02:29:06;5.63;;;1.80;;
56201;SDS011;42117;50.360;3.508;2023-03-14T02:31:32;2.95;;;1.30;;
56201;SDS011;42117;50.360;3.508;2023-03-14T02:33:58;7.55;;;2.15;;
56201;SDS011;42117;50.360;3.508;2023-03-14T02:36:25;7.55;;;2.00;;
56201;SDS011;42117;50.360;3.508;2023-03-14T02:39:08;11.80;;;1.60;;
56201;SDS011;42117;50.360;3.508;2023-03-14T02:41:37;7.32;;;2.42;;
56201;SDS011;42117;50.360;3.508;2023-03-14T02:44:03;8.68;;;2.00;;
56201;SDS011;42117;50.360;3.508;2023-03-14T02:46:29;3.90;;;1.40;;
56201;SDS011;42117;50.360;3.508;2023-03-14T02:49:02;9.33;;;1.77;;
56201;SDS011;42117;50.360;3.508;2023-03-14T02:51:28;3.60;;;1.50;;
56201;SDS011;42117;50.360;3.508;2023-03-14T02:53:55;2.40;;;1.00;;
56201;SDS011;42117;50.360;3.508;2023-03-14T02:56:21;4.05;;;1.77;;
56201;SDS011;42117;50.360;3.508;2023-03-14T02:58:47;6.95;;;1.88;;
56201;SDS011;42117;50.360;3.508;2023-03-14T03:01:13;4.43;;;1.40;;
56201;SDS011;42117;50.360;3.508;2023-03-14T03:03:39;5.13;;;2.00;;
56201;SDS011;42117;50.360;3.508;2023-03-14T03:06:05;6.07;;;1.90;;
56201;SDS011;42117;50.360;3.508;2023-03-14T03:08:31;1.30;;;1.30;;
56201;SDS011;42117;50.360;3.508;2023-03-14T03:10:57;9.00;;;2.25;;
56201;SDS011;42117;50.360;3.508;2023-03-14T03:13:23;2.80;;;1.45;;
56201;SDS011;42117;50.360;3.508;2023-03-14T03:15:49;3.00;;;1.70;;
56201;SDS011;42117;50.360;3.508;2023-03-14T03:18:16;6.38;;;1.90;;
56201;SDS011;42117;50.360;3.508;2023-03-14T03:20:42;6.88;;;2.55;;
56201;SDS011;42117;50.360;3.508;2023-03-14T03:23:08;6.93;;;2.60;;
56201;SDS011;42117;50.360;3.508;2023-03-14T03:25:34;4.00;;;2.40;;
56201;SDS011;42117;50.360;3.508;2023-03-14T03:28:00;2.53;;;1.92;;
56201;SDS011;42117;50.360;3.508;2023-03-14T03:30:27;4.63;;;2.20;;
56201;SDS011;42117;50.360;3.508;2023-03-14T03:32:53;2.90;;;2.60;;
56201;SDS011;42117;50.360;3.508;2023-03-14T03:35:19;2.25;;;2.15;;
56201;SDS011;42117;50.360;3.508;2023-03-14T03:37:45;3.10;;;2.60;;
56201;SDS011;42117;50.360;3.508;2023-03-14T03:40:12;2.30;;;2.20;;
56201;SDS011;42117;50.360;3.508;2023-03-14T03:42:38;3.95;;;2.63;;
56201;SDS011;42117;50.360;3.508;2023-03-14T03:45:04;2.40;;;2.20;;
56201;SDS011;42117;50.360;3.508;2023-03-14T03:47:31;4.90;;;2.05;;
56201;SDS011;42117;50.360;3.508;2023-03-14T03:49:57;3.63;;;2.23;;
56201;SDS011;42117;50.360;3.508;2023-03-14T03:52:23;2.10;;;1.90;;
56201;SDS011;42117;50.360;3.508;2023-03-14T03:54:49;2.20;;;2.10;;
56201;SDS011;42117;50.360;3.508;2023-03-14T03:57:15;3.47;;;2.13;;
56201;SDS011;42117;50.360;3.508;2023-03-14T03:59:41;4.45;;;2.35;;
56201;SDS011;42117;50.360;3.508;2023-03-14T04:02:07;3.10;;;2.00;;
56201;SDS011;42117;50.360;3.508;2023-03-14T04:04:33;2.55;;;2.33;;
56201;SDS011;42117;50.360;3.508;2023-03-14T04:06:59;3.58;;;2.00;;
56201;SDS011;42117;50.360;3.508;2023-03-14T04:09:25;3.00;;;2.60;;
56201;SDS011;42117;50.360;3.508;2023-03-14T04:11:51;4.35;;;2.70;;
56201;SDS011;42117;50.360;3.508;2023-03-14T04:14:17;2.40;;;2.20;;
56201;SDS011;42117;50.360;3.508;2023-03-14T04:16:43;1.75;;;1.65;;
56201;SDS011;42117;50.360;3.508;2023-03-14T04:19:09;2.30;;;2.20;;
56201;SDS011;42117;50.360;3.508;2023-03-14T04:21:35;3.60;;;2.10;;
56201;SDS011;42117;50.360;3.508;2023-03-14T04:24:05;1.67;;;1.67;;
56201;SDS011;42117;50.360;3.508;2023-03-14T04:26:31;1.80;;;1.80;;
56201;SDS011;42117;50.360;3.508;2023-03-14T04:28:57;3.77;;;2.10;;
56201;SDS011;42117;50.360;3.508;2023-03-14T04:31:23;2.30;;;2.20;;
56201;SDS011;42117;50.360;3.508;2023-03-14T04:33:49;1.90;;;1.80;;
56201;SDS011;42117;50.360;3.508;2023-03-14T04:36:15;2.60;;;1.80;;
56201;SDS011;42117;50.360;3.508;2023-03-14T04:38:41;2.33;;;2.20;;
56201;SDS011;42117;50.360;3.508;2023-03-14T04:41:07;2.00;;;1.90;;
56201;SDS011;42117;50.360;3.508;2023-03-14T04:43:33;1.70;;;1.60;;
56201;SDS011;42117;50.360;3.508;2023-03-14T04:45:59;2.08;;;2.00;;
56201;SDS011;42117;50.360;3.508;2023-03-14T04:48:25;1.70;;;1.70;;
56201;SDS011;42117;50.360;3.508;2023-03-14T04:50:52;3.60;;;1.70;;
56201;SDS011;42117;50.360;3.508;2023-03-14T04:53:18;1.90;;;1.80;;
56201;SDS011;42117;50.360;3.508;2023-03-14T04:55:48;1.75;;;1.75;;
56201;SDS011;42117;50.360;3.508;2023-03-14T04:58:14;1.80;;;1.70;;
56201;SDS011;42117;50.360;3.508;2023-03-14T05:00:40;2.05;;;1.95;;
56201;SDS011;42117;50.360;3.508;2023-03-14T05:03:06;2.80;;;2.30;;
56201;SDS011;42117;50.360;3.508;2023-03-14T05:05:32;2.35;;;2.35;;
56201;SDS011;42117;50.360;3.508;2023-03-14T05:07:58;1.98;;;1.98;;
56201;SDS011;42117;50.360;3.508;2023-03-14T05:10:24;2.33;;;2.22;;
56201;SDS011;42117;50.360;3.508;2023-03-14T05:12:50;2.07;;;2.07;;
56201;SDS011;42117;50.360;3.508;2023-03-14T05:15:16;2.65;;;2.45;;
56201;SDS011;42117;50.360;3.508;2023-03-14T05:17:42;2.70;;;2.53;;
56201;SDS011;42117;50.360;3.508;2023-03-14T05:20:08;2.67;;;2.47;;
56201;SDS011;42117;50.360;3.508;2023-03-14T05:22:37;5.47;;;2.75;;
56201;SDS011;42117;50.360;3.508;2023-03-14T05:25:03;3.00;;;2.80;;
56201;SDS011;42117;50.360;3.508;2023-03-14T05:27:29;3.13;;;2.92;;
56201;SDS011;42117;50.360;3.508;2023-03-14T05:29:55;1.40;;;1.30;;
56201;SDS011;42117;50.360;3.508;2023-03-14T05:32:21;1.13;;;1.13;;
56201;SDS011;42117;50.360;3.508;2023-03-14T05:34:47;4.13;;;2.20;;
56201;SDS011;42117;50.360;3.508;2023-03-14T05:37:13;1.35;;;1.20;;
56201;SDS011;42117;50.360;3.508;2023-03-14T05:39:39;3.92;;;1.65;;
56201;SDS011;42117;50.360;3.508;2023-03-14T05:42:05;1.92;;;1.38;;
56201;SDS011;42117;50.360;3.508;2023-03-14T05:44:31;1.42;;;1.40;;
56201;SDS011;42117;50.360;3.508;2023-03-14T05:46:57;3.00;;;1.90;;
56201;SDS011;42117;50.360;3.508;2023-03-14T05:49:23;4.22;;;1.35;;
56201;SDS011;42117;50.360;3.508;2023-03-14T05:51:50;1.20;;;1.15;;
56201;SDS011;42117;50.360;3.508;2023-03-14T05:54:16;1.00;;;1.00;;
56201;SDS011;42117;50.360;3.508;2023-03-14T05:56:42;0.90;;;0.90;;
56201;SDS011;42117;50.360;3.508;2023-03-14T05:59:09;0.80;;;0.80;;
56201;SDS011;42117;50.360;3.508;2023-03-14T06:01:35;0.90;;;0.90;;
56201;SDS011;42117;50.360;3.508;2023-03-14T06:04:01;1.02;;;1.02;;
56201;SDS011;42117;50.360;3.508;2023-03-14T06:06:27;0.85;;;0.85;;
56201;SDS011;42117;50.360;3.508;2023-03-14T06:08:53;0.70;;;0.70;;
56201;SDS011;42117;50.360;3.508;2023-03-14T06:11:19;0.40;;;0.40;;
56201;SDS011;42117;50.360;3.508;2023-03-14T06:13:45;0.30;;;0.30;;
56201;SDS011;42117;50.360;3.508;2023-03-14T06:16:11;0.30;;;0.30;;
56201;SDS011;42117;50.360;3.508;2023-03-14T06:18:38;0.60;;;0.60;;
56201;SDS011;42117;50.360;3.508;2023-03-14T06:21:04;1.00;;;0.60;;
56201;SDS011;42117;50.360;3.508;2023-03-14T06:23:30;0.30;;;0.30;;
56201;SDS011;42117;50.360;3.508;2023-03-14T06:25:56;0.30;;;0.30;;
56201;SDS011;42117;50.360;3.508;2023-03-14T06:28:22;0.73;;;0.73;;
56201;SDS011;42117;50.360;3.508;2023-03-14T06:30:49;0.40;;;0.40;;
56201;SDS011;42117;50.360;3.508;2023-03-14T06:33:15;0.32;;;0.32;;
56201;SDS011;42117;50.360;3.508;2023-03-14T06:35:41;4.80;;;0.60;;
56201;SDS011;42117;50.360;3.508;2023-03-14T06:38:07;0.20;;;0.20;;
56201;SDS011;42117;50.360;3.508;2023-03-14T06:40:33;0.30;;;0.30;;
56201;SDS011;42117;50.360;3.508;2023-03-14T06:42:59;0.60;;;0.60;;
56201;SDS011;42117;50.360;3.508;2023-03-14T06:45:25;0.40;;;0.40;;
56201;SDS011;42117;50.360;3.508;2023-03-14T06:47:51;0.70;;;0.70;;
56201;SDS011;42117;50.360;3.508;2023-03-14T06:50:17;0.70;;;0.50;;
56201;SDS011;42117;50.360;3.508;2023-03-14T06:52:43;4.60;;;0.50;;
56201;SDS011;42117;50.360;3.508;2023-03-14T06:55:13;0.40;;;0.40;;
56201;SDS011;42117;50.360;3.508;2023-03-14T06:57:39;3.20;;;0.50;;
56201;SDS011;42117;50.360;3.508;2023-03-14T07:00:05;0.20;;;0.20;;
56201;SDS011;42117;50.360;3.508;2023-03-14T07:02:31;0.30;;;0.30;;
56201;SDS011;42117;50.360;3.508;2023-03-14T07:04:57;0.47;;;0.47;;
56201;SDS011;42117;50.360;3.508;2023-03-14T07:07:24;0.80;;;0.80;;
56201;SDS011;42117;50.360;3.508;2023-03-14T07:09:50;0.40;;;0.40;;
56201;SDS011;42117;50.360;3.508;2023-03-14T07:12:16;1.50;;;0.80;;
56201;SDS011;42117;50.360;3.508;2023-03-14T07:14:42;0.60;;;0.60;;
56201;SDS011;42117;50.360;3.508;2023-03-14T07:17:07;0.90;;;0.90;;
56201;SDS011;42117;50.360;3.508;2023-03-14T07:19:33;0.32;;;0.32;;
56201;SDS011;42117;50.360;3.508;2023-03-14T07:21:59;0.40;;;0.40;;
56201;SDS011;42117;50.360;3.508;2023-03-14T07:24:26;0.52;;;0.52;;
56201;SDS011;42117;50.360;3.508;2023-03-14T07:26:52;0.30;;;0.30;;
56201;SDS011;42117;50.360;3.508;2023-03-14T07:29:18;0.57;;;0.57;;
56201;SDS011;42117;50.360;3.508;2023-03-14T07:31:44;0.40;;;0.40;;
56201;SDS011;42117;50.360;3.508;2023-03-14T07:34:10;6.38;;;1.90;;
56201;SDS011;42117;50.360;3.508;2023-03-14T07:36:36;2.75;;;1.80;;
56201;SDS011;42117;50.360;3.508;2023-03-14T07:39:02;2.15;;;1.83;;
56201;SDS011;42117;50.360;3.508;2023-03-14T07:41:29;2.20;;;1.45;;
56201;SDS011;42117;50.360;3.508;2023-03-14T07:43:55;1.30;;;1.20;;
56201;SDS011;42117;50.360;3.508;2023-03-14T07:46:21;3.60;;;1.42;;
56201;SDS011;42117;50.360;3.508;2023-03-14T07:48:47;3.50;;;1.35;;
56201;SDS011;42117;50.360;3.508;2023-03-14T07:51:13;1.50;;;1.40;;
56201;SDS011;42117;50.360;3.508;2023-03-14T07:53:39;5.32;;;1.70;;
56201;SDS011;42117;50.360;3.508;2023-03-14T07:56:05;1.30;;;1.30;;
56201;SDS011;42117;50.360;3.508;2023-03-14T07:58:31;4.30;;;2.08;;
56201;SDS011;42117;50.360;3.508;2023-03-14T08:00:58;2.28;;;2.05;;
56201;SDS011;42117;50.360;3.508;2023-03-14T08:03:24;2.10;;;1.35;;
56201;SDS011;42117;50.360;3.508;2023-03-14T08:05:50;2.65;;;1.40;;
56201;SDS011;42117;50.360;3.508;2023-03-14T08:08:17;5.00;;;1.50;;
56201;SDS011;42117;50.360;3.508;2023-03-14T08:10:43;2.40;;;1.57;;
56201;SDS011;42117;50.360;3.508;2023-03-14T08:13:09;3.22;;;1.33;;
56201;SDS011;42117;50.360;3.508;2023-03-14T08:15:36;5.33;;;2.17;;
56201;SDS011;42117;50.360;3.508;2023-03-14T08:20:47;3.30;;;1.53;;
56201;SDS011;42117;50.360;3.508;2023-03-14T08:23:13;1.53;;;1.53;;
56201;SDS011;42117;50.360;3.508;2023-03-14T08:25:39;2.10;;;1.65;;
56201;SDS011;42117;50.360;3.508;2023-03-14T08:28:04;4.40;;;2.00;;
56201;SDS011;42117;50.360;3.508;2023-03-14T08:30:30;1.27;;;1.25;;
56201;SDS011;42117;50.360;3.508;2023-03-14T08:32:57;1.70;;;1.60;;
56201;SDS011;42117;50.360;3.508;2023-03-14T08:35:23;3.22;;;1.52;;
56201;SDS011;42117;50.360;3.508;2023-03-14T08:37:50;7.20;;;1.90;;
56201;SDS011;42117;50.360;3.508;2023-03-14T08:40:17;1.10;;;1.10;;
56201;SDS011;42117;50.360;3.508;2023-03-14T08:42:43;1.42;;;1.42;;
56201;SDS011;42117;50.360;3.508;2023-03-14T08:45:11;1.63;;;1.50;;
56201;SDS011;42117;50.360;3.508;2023-03-14T08:47:37;1.85;;;1.60;;
56201;SDS011;42117;50.360;3.508;2023-03-14T08:50:03;2.45;;;2.10;;
56201;SDS011;42117;50.360;3.508;2023-03-14T08:52:30;3.40;;;1.38;;
56201;SDS011;42117;50.360;3.508;2023-03-14T08:54:56;1.77;;;1.30;;
56201;SDS011;42117;50.360;3.508;2023-03-14T08:57:22;4.80;;;1.33;;
56201;SDS011;42117;50.360;3.508;2023-03-14T08:59:52;1.40;;;1.30;;
56201;SDS011;42117;50.360;3.508;2023-03-14T09:02:19;4.50;;;1.40;;
56201;SDS011;42117;50.360;3.508;2023-03-14T09:04:45;1.92;;;1.30;;
56201;SDS011;42117;50.360;3.508;2023-03-14T09:07:11;3.80;;;1.60;;
56201;SDS011;42117;50.360;3.508;2023-03-14T09:09:37;1.30;;;1.20;;
56201;SDS011;42117;50.360;3.508;2023-03-14T09:12:03;3.70;;;1.60;;
56201;SDS011;42117;50.360;3.508;2023-03-14T09:14:29;2.20;;;1.30;;
56201;SDS011;42117;50.360;3.508;2023-03-14T09:16:56;3.33;;;1.50;;
56201;SDS011;42117;50.360;3.508;2023-03-14T09:19:22;5.00;;;1.40;;
56201;SDS011;42117;50.360;3.508;2023-03-14T09:21:49;5.20;;;1.97;;
56201;SDS011;42117;50.360;3.508;2023-03-14T09:24:16;2.13;;;1.20;;
56201;SDS011;42117;50.360;3.508;2023-03-14T09:26:42;1.45;;;1.20;;
56201;SDS011;42117;50.360;3.508;2023-03-14T09:29:08;1.17;;;1.17;;
56201;SDS011;42117;50.360;3.508;2023-03-14T09:31:34;1.40;;;1.30;;
56201;SDS011;42117;50.360;3.508;2023-03-14T09:34:00;1.70;;;1.60;;
56201;SDS011;42117;50.360;3.508;2023-03-14T09:36:26;1.77;;;1.58;;
56201;SDS011;42117;50.360;3.508;2023-03-14T09:38:52;2.45;;;1.85;;
56201;SDS011;42117;50.360;3.508;2023-03-14T09:41:28;3.75;;;1.63;;
56201;SDS011;42117;50.360;3.508;2023-03-14T09:43:58;5.40;;;1.48;;
56201;SDS011;42117;50.360;3.508;2023-03-14T09:46:26;5.53;;;2.30;;
56201;SDS011;42117;50.360;3.508;2023-03-14T09:48:53;1.10;;;1.00;;
56201;SDS011;42117;50.360;3.508;2023-03-14T09:51:19;1.00;;;1.00;;
56201;SDS011;42117;50.360;3.508;2023-03-14T09:53:48;2.00;;;1.60;;
56201;SDS011;42117;50.360;3.508;2023-03-14T09:56:23;4.75;;;1.40;;
56201;SDS011;42117;50.360;3.508;2023-03-14T09:58:51;1.52;;;1.00;;
56201;SDS011;42117;50.360;3.508;2023-03-14T10:01:20;2.13;;;1.45;;
56201;SDS011;42117;50.360;3.508;2023-03-14T10:03:48;15.10;;;2.28;;
56201;SDS011;42117;50.360;3.508;2023-03-14T10:06:14;4.53;;;2.05;;
56201;SDS011;42117;50.360;3.508;2023-03-14T10:08:41;2.78;;;1.55;;
56201;SDS011;42117;50.360;3.508;2023-03-14T10:11:17;0.97;;;0.90;;
56201;SDS011;42117;50.360;3.508;2023-03-14T10:16:22;4.10;;;1.40;;
56201;SDS011;42117;50.360;3.508;2023-03-14T10:18:54;4.20;;;1.40;;
56201;SDS011;42117;50.360;3.508;2023-03-14T10:21:27;3.45;;;1.42;;
56201;SDS011;42117;50.360;3.508;2023-03-14T10:23:54;5.40;;;2.83;;
56201;SDS011;42117;50.360;3.508;2023-03-14T10:26:23;4.07;;;1.15;;
56201;SDS011;42117;50.360;3.508;2023-03-14T10:28:51;2.50;;;1.30;;
56201;SDS011;42117;50.360;3.508;2023-03-14T10:31:17;1.85;;;1.20;;
56201;SDS011;42117;50.360;3.508;2023-03-14T10:33:56;1.80;;;1.67;;
56201;SDS011;42117;50.360;3.508;2023-03-14T10:36:24;1.52;;;1.42;;
56201;SDS011;42117;50.360;3.508;2023-03-14T10:41:37;5.07;;;1.50;;
56201;SDS011;42117;50.360;3.508;2023-03-14T10:44:03;3.40;;;1.52;;
56201;SDS011;42117;50.360;3.508;2023-03-14T10:46:31;3.60;;;1.42;;
56201;SDS011;42117;50.360;3.508;2023-03-14T10:48:58;1.33;;;1.33;;
56201;SDS011;42117;50.360;3.508;2023-03-14T10:51:29;3.13;;;1.20;;
56201;SDS011;42117;50.360;3.508;2023-03-14T10:53:56;4.15;;;1.35;;
56201;SDS011;42117;50.360;3.508;2023-03-14T10:56:23;5.83;;;1.47;;
56201;SDS011;42117;50.360;3.508;2023-03-14T10:58:50;6.57;;;1.42;;
56201;SDS011;42117;50.360;3.508;2023-03-14T11:06:42;3.30;;;1.30;;
56201;SDS011;42117;50.360;3.508;2023-03-14T11:09:16;5.32;;;1.27;;
56201;SDS011;42117;50.360;3.508;2023-03-14T11:11:47;2.20;;;1.60;;
56201;SDS011;42117;50.360;3.508;2023-03-14T11:14:33;2.85;;;1.40;;
56201;SDS011;42117;50.360;3.508;2023-03-14T11:17:09;1.30;;;1.20;;
56201;SDS011;42117;50.360;3.508;2023-03-14T11:22:13;2.50;;;1.40;;
56201;SDS011;42117;50.360;3.508;2023-03-14T11:27:21;3.60;;;1.50;;
56201;SDS011;42117;50.360;3.508;2023-03-14T11:32:29;6.60;;;1.20;;
56201;SDS011;42117;50.360;3.508;2023-03-14T11:34:56;1.60;;;0.98;;
56201;SDS011;42117;50.360;3.508;2023-03-14T11:37:29;5.40;;;1.60;;
56201;SDS011;42117;50.360;3.508;2023-03-14T11:40:18;4.43;;;1.23;;
56201;SDS011;42117;50.360;3.508;2023-03-14T11:42:46;2.10;;;1.00;;
56201;SDS011;42117;50.360;3.508;2023-03-14T11:45:25;4.07;;;1.40;;
56201;SDS011;42117;50.360;3.508;2023-03-14T11:48:05;2.65;;;1.05;;
56201;SDS011;42117;50.360;3.508;2023-03-14T11:50:32;1.00;;;1.00;;
56201;SDS011;42117;50.360;3.508;2023-03-14T11:53:08;2.47;;;1.50;;
56201;SDS011;42117;50.360;3.508;2023-03-14T11:55:35;1.90;;;1.70;;
56201;SDS011;42117;50.360;3.508;2023-03-14T11:58:19;3.22;;;1.60;;
56201;SDS011;42117;50.360;3.508;2023-03-14T12:00:47;8.73;;;1.50;;
56201;SDS011;42117;50.360;3.508;2023-03-14T12:03:32;1.95;;;1.50;;
56201;SDS011;42117;50.360;3.508;2023-03-14T12:10:58;1.77;;;1.10;;
56201;SDS011;42117;50.360;3.508;2023-03-14T12:13:28;2.95;;;1.70;;
56201;SDS011;42117;50.360;3.508;2023-03-14T12:15:56;3.50;;;1.63;;
56201;SDS011;42117;50.360;3.508;2023-03-14T12:18:29;5.10;;;1.33;;
56201;SDS011;42117;50.360;3.508;2023-03-14T12:20:59;4.20;;;1.30;;
56201;SDS011;42117;50.360;3.508;2023-03-14T12:23:25;2.40;;;1.40;;
56201;SDS011;42117;50.360;3.508;2023-03-14T12:28:37;2.60;;;1.70;;
56201;SDS011;42117;50.360;3.508;2023-03-14T12:33:48;1.60;;;1.30;;
56201;SDS011;42117;50.360;3.508;2023-03-14T12:36:31;2.25;;;1.13;;
56201;SDS011;42117;50.360;3.508;2023-03-14T12:41:52;3.47;;;1.40;;
56201;SDS011;42117;50.360;3.508;2023-03-14T12:46:57;4.90;;;1.42;;
56201;SDS011;42117;50.360;3.508;2023-03-14T12:49:29;2.40;;;0.95;;
56201;SDS011;42117;50.360;3.508;2023-03-14T12:52:01;7.65;;;1.40;;
56201;SDS011;42117;50.360;3.508;2023-03-14T12:54:40;1.00;;;1.00;;
56201;SDS011;42117;50.360;3.508;2023-03-14T12:59:58;8.15;;;1.30;;
56201;SDS011;42117;50.360;3.508;2023-03-14T13:02:59;3.50;;;1.50;;
56201;SDS011;42117;50.360;3.508;2023-03-14T13:05:24;1.55;;;1.00;;
56201;SDS011;42117;50.360;3.508;2023-03-14T13:10:27;3.25;;;1.40;;
56201;SDS011;42117;50.360;3.508;2023-03-14T13:13:11;6.60;;;1.52;;
56201;SDS011;42117;50.360;3.508;2023-03-14T13:15:41;0.90;;;0.90;;
56201;SDS011;42117;50.360;3.508;2023-03-14T13:18:24;3.78;;;1.08;;
56201;SDS011;42117;50.360;3.508;2023-03-14T13:20:59;1.95;;;1.52;;
56201;SDS011;42117;50.360;3.508;2023-03-14T13:23:28;4.10;;;1.52;;
56201;SDS011;42117;50.360;3.508;2023-03-14T13:25:54;3.53;;;1.42;;
56201;SDS011;42117;50.360;3.508;2023-03-14T13:28:21;1.17;;;1.17;;
56201;SDS011;42117;50.360;3.508;2023-03-14T13:30:48;4.30;;;1.47;;
56201;SDS011;42117;50.360;3.508;2023-03-14T13:33:16;1.67;;;1.52;;
56201;SDS011;42117;50.360;3.508;2023-03-14T13:35:44;4.43;;;1.85;;
56201;SDS011;42117;50.360;3.508;2023-03-14T13:38:23;3.63;;;1.95;;
56201;SDS011;42117;50.360;3.508;2023-03-14T13:40:50;6.28;;;2.10;;
56201;SDS011;42117;50.360;3.508;2023-03-14T13:43:17;2.73;;;2.10;;
56201;SDS011;42117;50.360;3.508;2023-03-14T13:45:45;3.13;;;1.77;;
56201;SDS011;42117;50.360;3.508;2023-03-14T13:48:12;4.15;;;2.00;;
56201;SDS011;42117;50.360;3.508;2023-03-14T13:50:43;2.83;;;2.20;;
56201;SDS011;42117;50.360;3.508;2023-03-14T13:53:11;5.07;;;2.10;;
56201;SDS011;42117;50.360;3.508;2023-03-14T13:55:37;4.03;;;2.00;;
56201;SDS011;42117;50.360;3.508;2023-03-14T13:58:04;1.77;;;1.67;;
56201;SDS011;42117;50.360;3.508;2023-03-14T14:00:30;1.20;;;1.20;;
56201;SDS011;42117;50.360;3.508;2023-03-14T14:02:56;1.50;;;1.45;;
56201;SDS011;42117;50.360;3.508;2023-03-14T14:05:23;2.85;;;1.48;;
56201;SDS011;42117;50.360;3.508;2023-03-14T14:07:52;1.92;;;1.83;;
56201;SDS011;42117;50.360;3.508;2023-03-14T14:10:18;1.80;;;1.80;;
56201;SDS011;42117;50.360;3.508;2023-03-14T14:12:46;1.67;;;1.67;;
56201;SDS011;42117;50.360;3.508;2023-03-14T14:17:43;3.80;;;1.88;;
56201;SDS011;42117;50.360;3.508;2023-03-14T14:20:16;3.08;;;1.98;;
56201;SDS011;42117;50.360;3.508;2023-03-14T14:22:44;5.55;;;2.55;;
56201;SDS011;42117;50.360;3.508;2023-03-14T14:25:13;3.78;;;2.22;;
56201;SDS011;42117;50.360;3.508;2023-03-14T14:27:41;4.20;;;2.20;;
56201;SDS011;42117;50.360;3.508;2023-03-14T14:32:46;8.65;;;2.75;;
56201;SDS011;42117;50.360;3.508;2023-03-14T14:35:24;5.77;;;2.10;;
56201;SDS011;42117;50.360;3.508;2023-03-14T14:37:50;7.18;;;2.45;;
56201;SDS011;42117;50.360;3.508;2023-03-14T14:42:46;7.65;;;2.90;;
56201;SDS011;42117;50.360;3.508;2023-03-14T14:45:16;10.20;;;3.00;;
56201;SDS011;42117;50.360;3.508;2023-03-14T14:47:57;9.88;;;2.97;;
56201;SDS011;42117;50.360;3.508;2023-03-14T14:50:36;11.87;;;3.50;;
56201;SDS011;42117;50.360;3.508;2023-03-14T14:53:17;12.87;;;3.43;;
56201;SDS011;42117;50.360;3.508;2023-03-14T14:55:44;13.77;;;4.10;;
56201;SDS011;42117;50.360;3.508;2023-03-14T14:58:18;10.35;;;2.95;;
56201;SDS011;42117;50.360;3.508;2023-03-14T15:00:50;10.30;;;2.78;;
56201;SDS011;42117;50.360;3.508;2023-03-14T15:03:17;10.55;;;3.08;;
56201;SDS011;42117;50.360;3.508;2023-03-14T15:05:43;8.03;;;3.00;;
56201;SDS011;42117;50.360;3.508;2023-03-14T15:08:09;9.60;;;3.03;;
56201;SDS011;42117;50.360;3.508;2023-03-14T15:10:36;12.90;;;3.08;;
56201;SDS011;42117;50.360;3.508;2023-03-14T15:13:02;8.35;;;2.97;;
56201;SDS011;42117;50.360;3.508;2023-03-14T15:15:28;8.40;;;2.45;;
56201;SDS011;42117;50.360;3.508;2023-03-14T15:17:54;7.60;;;2.38;;
56201;SDS011;42117;50.360;3.508;2023-03-14T15:20:20;7.30;;;2.72;;
56201;SDS011;42117;50.360;3.508;2023-03-14T15:22:48;6.50;;;2.78;;
56201;SDS011;42117;50.360;3.508;2023-03-14T15:25:15;10.27;;;2.25;;
56201;SDS011;42117;50.360;3.508;2023-03-14T15:27:41;7.50;;;2.33;;
56201;SDS011;42117;50.360;3.508;2023-03-14T15:30:14;7.47;;;2.22;;
56201;SDS011;42117;50.360;3.508;2023-03-14T15:32:40;9.85;;;2.53;;
56201;SDS011;42117;50.360;3.508;2023-03-14T15:35:07;8.30;;;2.83;;
56201;SDS011;42117;50.360;3.508;2023-03-14T15:37:33;9.30;;;3.17;;
56201;SDS011;42117;50.360;3.508;2023-03-14T15:40:00;9.10;;;2.97;;
56201;SDS011;42117;50.360;3.508;2023-03-14T15:42:28;9.43;;;3.50;;
56201;SDS011;42117;50.360;3.508;2023-03-14T15:44:54;13.70;;;3.42;;
56201;SDS011;42117;50.360;3.508;2023-03-14T15:47:20;11.43;;;3.75;;